sensor_id;sensor_type;location;lat;lon;timestamp;temperature;humidity
60469;DHT22;46316;47.582;10.238;2022-07-05T00:01:34;16.30;89.00
60469;DHT22;46316;47.582;10.238;2022-07-05T00:04:00;16.30;89.00
60469;DHT22;46316;47.582;10.238;2022-07-05T00:06:25;16.30;89.20
60469;DHT22;46316;47.582;10.238;2022-07-05T00:08:51;16.20;89.40
60469;DHT22;46316;47.582;10.238;2022-07-05T00:11:16;16.20;89.50
60469;DHT22;46316;47.582;10.238;2022-07-05T00:13:42;16.20;89.50
60469;DHT22;46316;47.582;10.238;2022-07-05T00:16:07;16.20;89.60
60469;DHT22;46316;47.582;10.238;2022-07-05T00:18:33;16.20;89.50
60469;DHT22;46316;47.582;10.238;2022-07-05T00:20:59;16.20;89.10
60469;DHT22;46316;47.582;10.238;2022-07-05T00:23:24;16.20;89.00
60469;DHT22;46316;47.582;10.238;2022-07-05T00:25:50;16.20;89.20
60469;DHT22;46316;47.582;10.238;2022-07-05T00:28:15;16.20;88.90
60469;DHT22;46316;47.582;10.238;2022-07-05T00:30:41;16.30;88.90
60469;DHT22;46316;47.582;10.238;2022-07-05T00:33:07;16.30;88.80
60469;DHT22;46316;47.582;10.238;2022-07-05T00:35:32;16.30;88.60
60469;DHT22;46316;47.582;10.238;2022-07-05T00:37:58;16.30;88.60
60469;DHT22;46316;47.582;10.238;2022-07-05T00:40:23;16.20;88.70
60469;DHT22;46316;47.582;10.238;2022-07-05T00:42:49;16.20;88.80
60469;DHT22;46316;47.582;10.238;2022-07-05T00:45:15;16.20;88.90
60469;DHT22;46316;47.582;10.238;2022-07-05T00:47:40;16.10;89.00
60469;DHT22;46316;47.582;10.238;2022-07-05T00:50:07;16.10;88.90
60469;DHT22;46316;47.582;10.238;2022-07-05T00:52:32;16.10;89.00
60469;DHT22;46316;47.582;10.238;2022-07-05T00:54:58;16.10;89.20
60469;DHT22;46316;47.582;10.238;2022-07-05T00:57:24;16.00;88.90
60469;DHT22;46316;47.582;10.238;2022-07-05T00:59:50;15.90;89.00
60469;DHT22;46316;47.582;10.238;2022-07-05T01:02:16;15.90;89.10
60469;DHT22;46316;47.582;10.238;2022-07-05T01:04:41;15.90;88.90
60469;DHT22;46316;47.582;10.238;2022-07-05T01:07:07;15.90;89.10
60469;DHT22;46316;47.582;10.238;2022-07-05T01:09:34;15.90;89.10
60469;DHT22;46316;47.582;10.238;2022-07-05T01:12:00;15.90;89.00
60469;DHT22;46316;47.582;10.238;2022-07-05T01:14:26;15.90;89.00
60469;DHT22;46316;47.582;10.238;2022-07-05T01:16:53;15.90;89.20
60469;DHT22;46316;47.582;10.238;2022-07-05T01:19:20;15.90;89.40
60469;DHT22;46316;47.582;10.238;2022-07-05T01:21:47;15.90;89.30
60469;DHT22;46316;47.582;10.238;2022-07-05T01:24:15;15.90;89.20
60469;DHT22;46316;47.582;10.238;2022-07-05T01:26:44;15.90;89.40
60469;DHT22;46316;47.582;10.238;2022-07-05T01:29:09;15.90;89.50
60469;DHT22;46316;47.582;10.238;2022-07-05T01:31:39;15.90;89.60
60469;DHT22;46316;47.582;10.238;2022-07-05T01:34:06;15.90;89.10
60469;DHT22;46316;47.582;10.238;2022-07-05T01:36:33;15.80;89.20
60469;DHT22;46316;47.582;10.238;2022-07-05T01:39:00;15.90;88.90
60469;DHT22;46316;47.582;10.238;2022-07-05T01:41:26;15.90;89.20
60469;DHT22;46316;47.582;10.238;2022-07-05T01:43:52;15.80;89.10
60469;DHT22;46316;47.582;10.238;2022-07-05T01:46:21;15.90;89.00
60469;DHT22;46316;47.582;10.238;2022-07-05T01:48:49;15.90;89.20
60469;DHT22;46316;47.582;10.238;2022-07-05T01:51:21;15.90;88.90
60469;DHT22;46316;47.582;10.238;2022-07-05T01:53:52;15.90;88.80
60469;DHT22;46316;47.582;10.238;2022-07-05T01:56:18;15.90;88.70
60469;DHT22;46316;47.582;10.238;2022-07-05T01:58:46;16.00;88.90
60469;DHT22;46316;47.582;10.238;2022-07-05T02:01:12;15.90;88.20
60469;DHT22;46316;47.582;10.238;2022-07-05T02:03:39;15.90;88.60
60469;DHT22;46316;47.582;10.238;2022-07-05T02:06:05;15.90;88.80
60469;DHT22;46316;47.582;10.238;2022-07-05T02:08:35;15.90;88.80
60469;DHT22;46316;47.582;10.238;2022-07-05T02:11:03;15.90;89.00
60469;DHT22;46316;47.582;10.238;2022-07-05T02:13:29;15.90;89.00
60469;DHT22;46316;47.582;10.238;2022-07-05T02:15:54;15.90;88.80
60469;DHT22;46316;47.582;10.238;2022-07-05T02:18:20;15.90;88.60
60469;DHT22;46316;47.582;10.238;2022-07-05T02:20:45;15.90;88.60
60469;DHT22;46316;47.582;10.238;2022-07-05T02:23:11;16.00;88.50
60469;DHT22;46316;47.582;10.238;2022-07-05T02:25:36;15.90;88.80
60469;DHT22;46316;47.582;10.238;2022-07-05T02:28:02;15.90;88.60
60469;DHT22;46316;47.582;10.238;2022-07-05T02:30:28;16.00;89.10
60469;DHT22;46316;47.582;10.238;2022-07-05T02:32:53;16.00;89.10
60469;DHT22;46316;47.582;10.238;2022-07-05T02:35:19;16.00;88.90
60469;DHT22;46316;47.582;10.238;2022-07-05T02:37:44;16.10;89.00
60469;DHT22;46316;47.582;10.238;2022-07-05T02:40:12;16.10;88.70
60469;DHT22;46316;47.582;10.238;2022-07-05T02:42:39;16.00;88.70
60469;DHT22;46316;47.582;10.238;2022-07-05T02:45:06;16.10;89.10
60469;DHT22;46316;47.582;10.238;2022-07-05T02:47:33;16.10;88.90
60469;DHT22;46316;47.582;10.238;2022-07-05T02:50:03;16.10;88.50
60469;DHT22;46316;47.582;10.238;2022-07-05T02:52:29;16.10;88.80
60469;DHT22;46316;47.582;10.238;2022-07-05T02:54:54;16.00;89.00
60469;DHT22;46316;47.582;10.238;2022-07-05T02:57:20;16.00;88.60
60469;DHT22;46316;47.582;10.238;2022-07-05T02:59:45;16.00;88.80
60469;DHT22;46316;47.582;10.238;2022-07-05T03:02:11;16.00;88.90
60469;DHT22;46316;47.582;10.238;2022-07-05T03:04:36;16.00;88.90
60469;DHT22;46316;47.582;10.238;2022-07-05T03:07:02;16.10;88.80
60469;DHT22;46316;47.582;10.238;2022-07-05T03:09:28;16.10;88.90
60469;DHT22;46316;47.582;10.238;2022-07-05T03:11:53;16.10;88.90
60469;DHT22;46316;47.582;10.238;2022-07-05T03:14:19;16.00;89.00
60469;DHT22;46316;47.582;10.238;2022-07-05T03:16:45;16.10;89.10
60469;DHT22;46316;47.582;10.238;2022-07-05T03:19:11;16.10;89.20
60469;DHT22;46316;47.582;10.238;2022-07-05T03:21:36;16.10;89.00
60469;DHT22;46316;47.582;10.238;2022-07-05T03:24:02;16.10;89.00
60469;DHT22;46316;47.582;10.238;2022-07-05T03:26:28;16.10;89.20
60469;DHT22;46316;47.582;10.238;2022-07-05T03:28:53;16.10;89.00
60469;DHT22;46316;47.582;10.238;2022-07-05T03:31:19;16.10;89.00
60469;DHT22;46316;47.582;10.238;2022-07-05T03:33:44;16.10;89.10
60469;DHT22;46316;47.582;10.238;2022-07-05T03:36:10;16.10;89.40
60469;DHT22;46316;47.582;10.238;2022-07-05T03:38:36;16.10;89.20
60469;DHT22;46316;47.582;10.238;2022-07-05T03:41:02;16.00;89.10
60469;DHT22;46316;47.582;10.238;2022-07-05T03:43:27;16.10;89.20
60469;DHT22;46316;47.582;10.238;2022-07-05T03:45:53;16.10;89.00
60469;DHT22;46316;47.582;10.238;2022-07-05T03:48:20;16.20;89.00
60469;DHT22;46316;47.582;10.238;2022-07-05T03:50:45;16.20;89.00
60469;DHT22;46316;47.582;10.238;2022-07-05T03:53:11;16.20;88.70
60469;DHT22;46316;47.582;10.238;2022-07-05T03:55:37;16.30;88.70
60469;DHT22;46316;47.582;10.238;2022-07-05T03:58:03;16.30;88.90
60469;DHT22;46316;47.582;10.238;2022-07-05T04:00:28;16.30;89.00
60469;DHT22;46316;47.582;10.238;2022-07-05T04:02:54;16.30;89.00
60469;DHT22;46316;47.582;10.238;2022-07-05T04:05:19;16.30;88.90
60469;DHT22;46316;47.582;10.238;2022-07-05T04:07:53;16.30;88.90
60469;DHT22;46316;47.582;10.238;2022-07-05T04:10:18;16.30;89.20
60469;DHT22;46316;47.582;10.238;2022-07-05T04:12:44;16.40;89.00
60469;DHT22;46316;47.582;10.238;2022-07-05T04:15:10;16.30;88.90
60469;DHT22;46316;47.582;10.238;2022-07-05T04:17:49;16.30;89.00
60469;DHT22;46316;47.582;10.238;2022-07-05T04:20:15;16.40;89.20
60469;DHT22;46316;47.582;10.238;2022-07-05T04:22:40;16.40;89.10
60469;DHT22;46316;47.582;10.238;2022-07-05T04:25:06;16.40;88.90
60469;DHT22;46316;47.582;10.238;2022-07-05T04:27:46;16.40;88.30
60469;DHT22;46316;47.582;10.238;2022-07-05T04:30:12;16.40;88.40
60469;DHT22;46316;47.582;10.238;2022-07-05T04:32:38;16.40;88.30
60469;DHT22;46316;47.582;10.238;2022-07-05T04:35:04;16.40;88.40
60469;DHT22;46316;47.582;10.238;2022-07-05T04:37:29;16.40;88.10
60469;DHT22;46316;47.582;10.238;2022-07-05T04:39:55;16.40;87.90
60469;DHT22;46316;47.582;10.238;2022-07-05T04:42:21;16.40;87.60
60469;DHT22;46316;47.582;10.238;2022-07-05T04:44:46;16.40;87.70
60469;DHT22;46316;47.582;10.238;2022-07-05T04:47:12;16.40;87.30
60469;DHT22;46316;47.582;10.238;2022-07-05T04:49:37;16.50;87.90
60469;DHT22;46316;47.582;10.238;2022-07-05T04:52:03;16.50;88.30
60469;DHT22;46316;47.582;10.238;2022-07-05T04:54:29;16.50;88.70
60469;DHT22;46316;47.582;10.238;2022-07-05T04:56:54;16.50;88.30
60469;DHT22;46316;47.582;10.238;2022-07-05T04:59:20;16.40;88.00
60469;DHT22;46316;47.582;10.238;2022-07-05T05:01:45;16.40;88.20
60469;DHT22;46316;47.582;10.238;2022-07-05T05:04:11;16.40;88.20
60469;DHT22;46316;47.582;10.238;2022-07-05T05:06:37;16.40;88.50
60469;DHT22;46316;47.582;10.238;2022-07-05T05:09:02;16.40;88.70
60469;DHT22;46316;47.582;10.238;2022-07-05T05:11:28;16.40;88.90
60469;DHT22;46316;47.582;10.238;2022-07-05T05:13:54;16.40;88.60
60469;DHT22;46316;47.582;10.238;2022-07-05T05:16:19;16.40;88.70
60469;DHT22;46316;47.582;10.238;2022-07-05T05:18:45;16.50;89.00
60469;DHT22;46316;47.582;10.238;2022-07-05T05:21:11;16.50;89.30
60469;DHT22;46316;47.582;10.238;2022-07-05T05:23:36;16.40;88.80
60469;DHT22;46316;47.582;10.238;2022-07-05T05:26:02;16.40;88.90
60469;DHT22;46316;47.582;10.238;2022-07-05T05:28:28;16.40;89.20
60469;DHT22;46316;47.582;10.238;2022-07-05T05:30:53;16.40;89.60
60469;DHT22;46316;47.582;10.238;2022-07-05T05:33:19;16.40;89.90
60469;DHT22;46316;47.582;10.238;2022-07-05T05:35:44;16.50;89.80
60469;DHT22;46316;47.582;10.238;2022-07-05T05:38:10;16.60;89.20
60469;DHT22;46316;47.582;10.238;2022-07-05T05:40:36;16.60;88.40
60469;DHT22;46316;47.582;10.238;2022-07-05T05:43:07;16.60;88.30
60469;DHT22;46316;47.582;10.238;2022-07-05T05:45:32;16.70;88.60
60469;DHT22;46316;47.582;10.238;2022-07-05T05:47:59;16.80;88.50
60469;DHT22;46316;47.582;10.238;2022-07-05T05:50:27;16.80;88.20
60469;DHT22;46316;47.582;10.238;2022-07-05T05:52:53;16.70;87.60
60469;DHT22;46316;47.582;10.238;2022-07-05T05:55:19;16.80;87.30
60469;DHT22;46316;47.582;10.238;2022-07-05T05:57:45;16.80;87.20
60469;DHT22;46316;47.582;10.238;2022-07-05T06:00:11;16.70;87.60
60469;DHT22;46316;47.582;10.238;2022-07-05T06:02:37;16.80;87.80
60469;DHT22;46316;47.582;10.238;2022-07-05T06:05:03;16.90;87.50
60469;DHT22;46316;47.582;10.238;2022-07-05T06:07:28;16.90;86.70
60469;DHT22;46316;47.582;10.238;2022-07-05T06:09:54;16.90;86.80
60469;DHT22;46316;47.582;10.238;2022-07-05T06:12:19;17.00;86.70
60469;DHT22;46316;47.582;10.238;2022-07-05T06:14:45;17.00;86.60
60469;DHT22;46316;47.582;10.238;2022-07-05T06:17:11;17.00;86.50
60469;DHT22;46316;47.582;10.238;2022-07-05T06:19:36;17.00;86.10
60469;DHT22;46316;47.582;10.238;2022-07-05T06:22:02;16.90;86.60
60469;DHT22;46316;47.582;10.238;2022-07-05T06:24:27;16.90;86.80
60469;DHT22;46316;47.582;10.238;2022-07-05T06:26:53;16.90;87.00
60469;DHT22;46316;47.582;10.238;2022-07-05T06:29:18;16.90;87.00
60469;DHT22;46316;47.582;10.238;2022-07-05T06:31:44;16.90;87.60
60469;DHT22;46316;47.582;10.238;2022-07-05T06:34:09;16.90;87.70
60469;DHT22;46316;47.582;10.238;2022-07-05T06:36:35;16.80;87.60
60469;DHT22;46316;47.582;10.238;2022-07-05T06:39:00;16.80;87.80
60469;DHT22;46316;47.582;10.238;2022-07-05T06:41:26;16.80;88.10
60469;DHT22;46316;47.582;10.238;2022-07-05T06:43:52;16.80;88.10
60469;DHT22;46316;47.582;10.238;2022-07-05T06:46:17;16.90;88.10
60469;DHT22;46316;47.582;10.238;2022-07-05T06:48:43;16.90;88.00
60469;DHT22;46316;47.582;10.238;2022-07-05T06:51:08;16.90;88.20
60469;DHT22;46316;47.582;10.238;2022-07-05T06:53:34;16.90;88.10
60469;DHT22;46316;47.582;10.238;2022-07-05T06:55:59;16.90;87.90
60469;DHT22;46316;47.582;10.238;2022-07-05T06:58:25;16.90;88.00
60469;DHT22;46316;47.582;10.238;2022-07-05T07:00:51;16.90;88.30
60469;DHT22;46316;47.582;10.238;2022-07-05T07:03:16;16.90;87.90
60469;DHT22;46316;47.582;10.238;2022-07-05T07:05:42;17.00;87.70
60469;DHT22;46316;47.582;10.238;2022-07-05T07:08:08;17.10;86.90
60469;DHT22;46316;47.582;10.238;2022-07-05T07:10:52;17.20;86.80
60469;DHT22;46316;47.582;10.238;2022-07-05T07:13:17;17.30;85.90
60469;DHT22;46316;47.582;10.238;2022-07-05T07:15:45;17.40;85.70
60469;DHT22;46316;47.582;10.238;2022-07-05T07:18:11;17.30;85.80
60469;DHT22;46316;47.582;10.238;2022-07-05T07:20:37;17.40;86.20
60469;DHT22;46316;47.582;10.238;2022-07-05T07:23:03;17.60;86.60
60469;DHT22;46316;47.582;10.238;2022-07-05T07:25:28;17.60;86.10
60469;DHT22;46316;47.582;10.238;2022-07-05T07:27:54;17.80;85.50
60469;DHT22;46316;47.582;10.238;2022-07-05T07:30:26;17.80;85.60
60469;DHT22;46316;47.582;10.238;2022-07-05T07:32:52;17.80;85.50
60469;DHT22;46316;47.582;10.238;2022-07-05T07:35:18;17.80;85.00
60469;DHT22;46316;47.582;10.238;2022-07-05T07:37:44;17.90;85.90
60469;DHT22;46316;47.582;10.238;2022-07-05T07:40:10;17.90;85.70
60469;DHT22;46316;47.582;10.238;2022-07-05T07:42:36;17.90;85.50
60469;DHT22;46316;47.582;10.238;2022-07-05T07:45:02;17.90;85.70
60469;DHT22;46316;47.582;10.238;2022-07-05T07:47:30;17.90;85.10
60469;DHT22;46316;47.582;10.238;2022-07-05T07:49:55;18.00;85.40
60469;DHT22;46316;47.582;10.238;2022-07-05T07:52:21;18.10;85.30
60469;DHT22;46316;47.582;10.238;2022-07-05T07:54:46;18.20;85.80
60469;DHT22;46316;47.582;10.238;2022-07-05T07:57:12;18.40;85.70
60469;DHT22;46316;47.582;10.238;2022-07-05T07:59:38;18.40;84.40
60469;DHT22;46316;47.582;10.238;2022-07-05T08:02:03;18.50;84.10
60469;DHT22;46316;47.582;10.238;2022-07-05T08:04:29;18.60;83.80
60469;DHT22;46316;47.582;10.238;2022-07-05T08:06:54;18.80;83.60
60469;DHT22;46316;47.582;10.238;2022-07-05T08:09:20;18.90;84.40
60469;DHT22;46316;47.582;10.238;2022-07-05T08:11:46;19.00;83.30
60469;DHT22;46316;47.582;10.238;2022-07-05T08:14:13;19.20;82.30
60469;DHT22;46316;47.582;10.238;2022-07-05T08:16:38;19.50;81.60
60469;DHT22;46316;47.582;10.238;2022-07-05T08:19:04;19.90;79.80
60469;DHT22;46316;47.582;10.238;2022-07-05T08:21:48;20.20;78.80
60469;DHT22;46316;47.582;10.238;2022-07-05T08:24:14;20.60;76.30
60469;DHT22;46316;47.582;10.238;2022-07-05T08:26:41;20.80;76.70
60469;DHT22;46316;47.582;10.238;2022-07-05T08:29:09;21.00;74.60
60469;DHT22;46316;47.582;10.238;2022-07-05T08:31:40;21.30;73.50
60469;DHT22;46316;47.582;10.238;2022-07-05T08:34:05;21.50;73.50
60469;DHT22;46316;47.582;10.238;2022-07-05T08:36:31;21.80;73.60
60469;DHT22;46316;47.582;10.238;2022-07-05T08:38:57;21.90;72.70
60469;DHT22;46316;47.582;10.238;2022-07-05T08:41:23;22.10;69.80
60469;DHT22;46316;47.582;10.238;2022-07-05T08:43:53;22.60;68.50
60469;DHT22;46316;47.582;10.238;2022-07-05T08:53:12;24.40;63.50
60469;DHT22;46316;47.582;10.238;2022-07-05T08:55:39;24.90;60.80
60469;DHT22;46316;47.582;10.238;2022-07-05T08:58:05;25.00;62.30
60469;DHT22;46316;47.582;10.238;2022-07-05T09:00:31;25.10;61.50
60469;DHT22;46316;47.582;10.238;2022-07-05T09:02:57;25.90;60.90
60469;DHT22;46316;47.582;10.238;2022-07-05T09:05:25;26.70;59.10
60469;DHT22;46316;47.582;10.238;2022-07-05T09:07:59;27.10;57.30
60469;DHT22;46316;47.582;10.238;2022-07-05T09:10:29;27.40;53.40
60469;DHT22;46316;47.582;10.238;2022-07-05T09:12:56;28.40;48.80
60469;DHT22;46316;47.582;10.238;2022-07-05T09:15:25;28.60;48.50
60469;DHT22;46316;47.582;10.238;2022-07-05T09:17:51;28.80;48.30
60469;DHT22;46316;47.582;10.238;2022-07-05T09:20:18;28.40;50.50
60469;DHT22;46316;47.582;10.238;2022-07-05T09:22:44;28.10;53.90
60469;DHT22;46316;47.582;10.238;2022-07-05T09:25:37;28.00;52.60
60469;DHT22;46316;47.582;10.238;2022-07-05T09:28:04;29.00;49.30
60469;DHT22;46316;47.582;10.238;2022-07-05T09:30:38;29.20;48.50
60469;DHT22;46316;47.582;10.238;2022-07-05T09:33:10;29.30;47.40
60469;DHT22;46316;47.582;10.238;2022-07-05T09:35:40;29.70;47.60
60469;DHT22;46316;47.582;10.238;2022-07-05T09:38:17;29.90;47.30
60469;DHT22;46316;47.582;10.238;2022-07-05T09:40:48;29.70;47.50
60469;DHT22;46316;47.582;10.238;2022-07-05T09:43:22;29.60;46.10
60469;DHT22;46316;47.582;10.238;2022-07-05T09:45:55;29.80;47.60
60469;DHT22;46316;47.582;10.238;2022-07-05T09:48:22;29.60;50.10
60469;DHT22;46316;47.582;10.238;2022-07-05T09:50:49;30.00;48.30
60469;DHT22;46316;47.582;10.238;2022-07-05T09:53:19;29.90;46.90
60469;DHT22;46316;47.582;10.238;2022-07-05T09:56:12;30.10;46.60
60469;DHT22;46316;47.582;10.238;2022-07-05T09:58:39;29.50;48.60
60469;DHT22;46316;47.582;10.238;2022-07-05T10:01:29;29.50;47.50
60469;DHT22;46316;47.582;10.238;2022-07-05T10:04:00;29.50;45.10
60469;DHT22;46316;47.582;10.238;2022-07-05T10:06:39;29.20;46.90
60469;DHT22;46316;47.582;10.238;2022-07-05T10:09:09;29.30;44.00
60469;DHT22;46316;47.582;10.238;2022-07-05T10:11:41;29.50;47.00
60469;DHT22;46316;47.582;10.238;2022-07-05T10:14:18;28.90;45.70
60469;DHT22;46316;47.582;10.238;2022-07-05T10:16:57;27.90;46.60
60469;DHT22;46316;47.582;10.238;2022-07-05T10:19:28;27.20;47.00
60469;DHT22;46316;47.582;10.238;2022-07-05T10:21:54;26.30;51.30
60469;DHT22;46316;47.582;10.238;2022-07-05T10:24:20;26.40;50.80
60469;DHT22;46316;47.582;10.238;2022-07-05T10:26:47;27.20;50.80
60469;DHT22;46316;47.582;10.238;2022-07-05T10:29:15;27.40;44.10
60469;DHT22;46316;47.582;10.238;2022-07-05T10:31:41;27.50;47.40
60469;DHT22;46316;47.582;10.238;2022-07-05T10:34:07;27.90;47.40
60469;DHT22;46316;47.582;10.238;2022-07-05T10:36:33;27.80;47.90
60469;DHT22;46316;47.582;10.238;2022-07-05T10:39:01;27.80;49.50
60469;DHT22;46316;47.582;10.238;2022-07-05T10:41:28;27.60;48.50
60469;DHT22;46316;47.582;10.238;2022-07-05T10:43:56;28.10;46.40
60469;DHT22;46316;47.582;10.238;2022-07-05T10:46:38;27.60;47.90
60469;DHT22;46316;47.582;10.238;2022-07-05T10:49:16;27.90;45.90
60469;DHT22;46316;47.582;10.238;2022-07-05T10:51:45;28.50;47.40
60469;DHT22;46316;47.582;10.238;2022-07-05T10:54:11;28.40;45.90
60469;DHT22;46316;47.582;10.238;2022-07-05T10:56:36;28.50;46.40
60469;DHT22;46316;47.582;10.238;2022-07-05T10:59:08;28.90;46.50
60469;DHT22;46316;47.582;10.238;2022-07-05T11:01:39;28.80;43.70
60469;DHT22;46316;47.582;10.238;2022-07-05T11:11:43;27.80;46.00
60469;DHT22;46316;47.582;10.238;2022-07-05T11:14:36;28.00;46.00
60469;DHT22;46316;47.582;10.238;2022-07-05T11:17:19;28.10;47.70
60469;DHT22;46316;47.582;10.238;2022-07-05T11:20:00;27.90;47.10
60469;DHT22;46316;47.582;10.238;2022-07-05T11:22:27;27.60;49.60
60469;DHT22;46316;47.582;10.238;2022-07-05T11:24:53;27.00;50.00
60469;DHT22;46316;47.582;10.238;2022-07-05T11:27:20;27.10;50.70
60469;DHT22;46316;47.582;10.238;2022-07-05T11:29:53;27.30;49.50
60469;DHT22;46316;47.582;10.238;2022-07-05T11:34:55;27.30;50.70
60469;DHT22;46316;47.582;10.238;2022-07-05T11:37:25;27.10;48.90
60469;DHT22;46316;47.582;10.238;2022-07-05T11:42:47;26.50;50.60
60469;DHT22;46316;47.582;10.238;2022-07-05T11:45:14;26.30;53.60
60469;DHT22;46316;47.582;10.238;2022-07-05T11:47:41;26.50;53.30
60469;DHT22;46316;47.582;10.238;2022-07-05T11:50:11;26.90;51.90
60469;DHT22;46316;47.582;10.238;2022-07-05T11:53:05;26.90;51.30
60469;DHT22;46316;47.582;10.238;2022-07-05T11:55:30;26.80;48.60
60469;DHT22;46316;47.582;10.238;2022-07-05T11:57:57;26.90;52.40
60469;DHT22;46316;47.582;10.238;2022-07-05T12:00:36;26.90;49.90
60469;DHT22;46316;47.582;10.238;2022-07-05T12:03:11;26.70;47.40
60469;DHT22;46316;47.582;10.238;2022-07-05T12:05:37;26.60;49.40
60469;DHT22;46316;47.582;10.238;2022-07-05T12:08:03;26.40;49.00
60469;DHT22;46316;47.582;10.238;2022-07-05T12:10:29;26.50;49.70
60469;DHT22;46316;47.582;10.238;2022-07-05T12:13:13;26.60;50.80
60469;DHT22;46316;47.582;10.238;2022-07-05T12:15:39;26.60;49.60
60469;DHT22;46316;47.582;10.238;2022-07-05T12:18:06;26.70;50.50
60469;DHT22;46316;47.582;10.238;2022-07-05T12:20:34;26.60;48.20
60469;DHT22;46316;47.582;10.238;2022-07-05T12:23:00;26.40;48.30
60469;DHT22;46316;47.582;10.238;2022-07-05T12:25:27;26.20;49.50
60469;DHT22;46316;47.582;10.238;2022-07-05T12:27:55;26.10;50.80
60469;DHT22;46316;47.582;10.238;2022-07-05T12:30:21;26.10;49.90
60469;DHT22;46316;47.582;10.238;2022-07-05T12:33:04;26.20;47.40
60469;DHT22;46316;47.582;10.238;2022-07-05T12:35:38;26.00;48.30
60469;DHT22;46316;47.582;10.238;2022-07-05T12:38:05;25.90;47.80
60469;DHT22;46316;47.582;10.238;2022-07-05T12:40:31;25.90;50.20
60469;DHT22;46316;47.582;10.238;2022-07-05T12:43:12;25.80;49.40
60469;DHT22;46316;47.582;10.238;2022-07-05T12:45:39;25.90;48.40
60469;DHT22;46316;47.582;10.238;2022-07-05T12:48:07;25.90;45.80
60469;DHT22;46316;47.582;10.238;2022-07-05T12:50:50;25.80;47.10
60469;DHT22;46316;47.582;10.238;2022-07-05T12:53:17;25.70;48.30
60469;DHT22;46316;47.582;10.238;2022-07-05T12:56:10;25.60;49.80
60469;DHT22;46316;47.582;10.238;2022-07-05T12:58:59;25.30;49.10
60469;DHT22;46316;47.582;10.238;2022-07-05T13:01:32;25.40;50.20
60469;DHT22;46316;47.582;10.238;2022-07-05T13:04:05;25.60;50.20
60469;DHT22;46316;47.582;10.238;2022-07-05T13:09:37;25.80;48.30
60469;DHT22;46316;47.582;10.238;2022-07-05T13:12:15;25.80;48.10
60469;DHT22;46316;47.582;10.238;2022-07-05T13:14:45;25.70;47.60
60469;DHT22;46316;47.582;10.238;2022-07-05T13:17:12;25.40;47.70
60469;DHT22;46316;47.582;10.238;2022-07-05T13:19:40;25.60;48.80
60469;DHT22;46316;47.582;10.238;2022-07-05T13:22:06;25.70;48.30
60469;DHT22;46316;47.582;10.238;2022-07-05T13:24:31;25.70;46.90
60469;DHT22;46316;47.582;10.238;2022-07-05T13:26:57;25.60;47.30
60469;DHT22;46316;47.582;10.238;2022-07-05T13:29:23;25.60;46.60
60469;DHT22;46316;47.582;10.238;2022-07-05T13:31:49;25.70;44.90
60469;DHT22;46316;47.582;10.238;2022-07-05T13:34:15;25.60;46.60
60469;DHT22;46316;47.582;10.238;2022-07-05T13:36:41;25.60;47.20
60469;DHT22;46316;47.582;10.238;2022-07-05T13:39:07;25.60;46.10
60469;DHT22;46316;47.582;10.238;2022-07-05T13:41:33;25.40;42.70
60469;DHT22;46316;47.582;10.238;2022-07-05T13:43:59;25.40;46.10
60469;DHT22;46316;47.582;10.238;2022-07-05T13:46:25;25.40;48.00
60469;DHT22;46316;47.582;10.238;2022-07-05T13:48:50;25.40;45.90
60469;DHT22;46316;47.582;10.238;2022-07-05T13:51:16;25.40;46.70
60469;DHT22;46316;47.582;10.238;2022-07-05T13:53:42;25.40;46.70
60469;DHT22;46316;47.582;10.238;2022-07-05T13:56:07;25.40;47.80
60469;DHT22;46316;47.582;10.238;2022-07-05T13:58:33;25.40;46.80
60469;DHT22;46316;47.582;10.238;2022-07-05T14:01:01;25.30;46.40
60469;DHT22;46316;47.582;10.238;2022-07-05T14:03:28;25.20;46.80
60469;DHT22;46316;47.582;10.238;2022-07-05T14:05:53;25.20;46.70
60469;DHT22;46316;47.582;10.238;2022-07-05T14:08:19;25.10;46.70
60469;DHT22;46316;47.582;10.238;2022-07-05T14:10:50;25.10;46.70
60469;DHT22;46316;47.582;10.238;2022-07-05T14:13:17;25.00;47.30
60469;DHT22;46316;47.582;10.238;2022-07-05T14:15:43;25.00;47.80
60469;DHT22;46316;47.582;10.238;2022-07-05T14:18:11;24.90;47.60
60469;DHT22;46316;47.582;10.238;2022-07-05T14:20:37;24.90;48.60
60469;DHT22;46316;47.582;10.238;2022-07-05T14:23:02;24.90;47.40
60469;DHT22;46316;47.582;10.238;2022-07-05T14:25:28;24.80;47.70
60469;DHT22;46316;47.582;10.238;2022-07-05T14:27:53;24.80;47.50
60469;DHT22;46316;47.582;10.238;2022-07-05T14:30:19;24.80;47.30
60469;DHT22;46316;47.582;10.238;2022-07-05T14:32:44;24.80;47.50
60469;DHT22;46316;47.582;10.238;2022-07-05T14:35:10;24.80;48.70
60469;DHT22;46316;47.582;10.238;2022-07-05T14:37:35;24.70;45.60
60469;DHT22;46316;47.582;10.238;2022-07-05T14:40:01;24.70;47.40
60469;DHT22;46316;47.582;10.238;2022-07-05T14:42:29;24.80;48.20
60469;DHT22;46316;47.582;10.238;2022-07-05T14:44:56;24.90;47.60
60469;DHT22;46316;47.582;10.238;2022-07-05T14:47:22;24.80;47.30
60469;DHT22;46316;47.582;10.238;2022-07-05T14:49:47;24.80;46.20
60469;DHT22;46316;47.582;10.238;2022-07-05T14:52:13;24.70;46.50
60469;DHT22;46316;47.582;10.238;2022-07-05T14:54:38;24.70;42.70
60469;DHT22;46316;47.582;10.238;2022-07-05T14:57:04;24.60;44.30
60469;DHT22;46316;47.582;10.238;2022-07-05T14:59:30;24.60;46.40
60469;DHT22;46316;47.582;10.238;2022-07-05T15:01:55;24.60;47.50
60469;DHT22;46316;47.582;10.238;2022-07-05T15:04:21;24.50;46.60
60469;DHT22;46316;47.582;10.238;2022-07-05T15:06:46;24.50;47.50
60469;DHT22;46316;47.582;10.238;2022-07-05T15:09:13;24.40;46.60
60469;DHT22;46316;47.582;10.238;2022-07-05T15:11:38;24.40;44.00
60469;DHT22;46316;47.582;10.238;2022-07-05T15:14:04;24.40;44.30
60469;DHT22;46316;47.582;10.238;2022-07-05T15:16:30;24.40;45.50
60469;DHT22;46316;47.582;10.238;2022-07-05T15:18:55;24.30;42.60
60469;DHT22;46316;47.582;10.238;2022-07-05T15:21:21;24.30;43.20
60469;DHT22;46316;47.582;10.238;2022-07-05T15:23:47;24.30;43.50
60469;DHT22;46316;47.582;10.238;2022-07-05T15:26:12;24.20;44.20
60469;DHT22;46316;47.582;10.238;2022-07-05T15:28:38;24.30;45.70
60469;DHT22;46316;47.582;10.238;2022-07-05T15:31:03;24.30;46.70
60469;DHT22;46316;47.582;10.238;2022-07-05T15:33:29;24.40;46.50
60469;DHT22;46316;47.582;10.238;2022-07-05T15:35:59;24.40;44.60
60469;DHT22;46316;47.582;10.238;2022-07-05T15:38:25;24.30;44.00
60469;DHT22;46316;47.582;10.238;2022-07-05T15:40:52;24.20;45.50